Time;durP1;ratioP1;P1;durP2;ratioP2;P2;SDS_P1;SDS_P2;PMS_P1;PMS_P2;Temp;Humidity;BMP_temperature;BMP_pressure;BME280_temperature;BME280_humidity;BME280_pressure;Samples;Min_cycle;Max_cycle;Signal;HPM_P1;HPM_P2
2022/02/04 00:23:38;;;;;;;;;;;;;;;20.84;40.49;100830.22;7281061;19;152816;-50
2022/02/04 00:28:52;;;;;;;;;;;;;;;20.86;40.41;100819.50;7290411;19;153040;-49
2022/02/04 00:34:03;;;;;;;;;;;;;;;20.88;40.58;100807.13;7282402;19;151899;-49
2022/02/04 00:36:42;;;;;;;;;;;;;;;20.91;41.36;100796.09;7283718;19;153362;-50
2022/02/04 00:39:14;;;;;;;;;;;;;;;20.91;40.67;100795.25;7286314;19;152517;-50
2022/02/04 00:41:43;;;;;;;;;;;;;;;20.90;41.06;100793.59;7284337;19;152676;-50
2022/02/04 00:44:19;;;;;;;;;;;;;;;20.88;40.84;100785.50;7284193;19;153862;-49
2022/02/04 00:52:02;;;;;;;;;;;;;;;20.85;41.29;100766.44;7289801;19;152211;-49
2022/02/04 00:57:14;;;;;;;;;;;;;;;20.82;41.38;100776.34;7283895;19;154125;-50
2022/02/04 01:06:29;;;;;;;;;;;;;;;20.79;41.32;100760.13;7283094;19;152298;-50
2022/02/04 01:26:08;;;;;;;;;;;;;;;20.68;41.57;100758.69;7283102;19;154301;-50
2022/02/04 01:28:37;;;;;;;;;;;;;;;20.67;41.96;100761.81;7282818;19;152097;-49
2022/02/04 01:31:05;;;;;;;;;;;;;;;20.65;41.70;100756.53;7282606;19;152861;-50
2022/02/04 01:33:32;;;;;;;;;;;;;;;20.64;42.02;100756.81;7281660;19;152319;-50
2022/02/04 01:35:59;;;;;;;;;;;;;;;20.62;42.22;100748.72;7289130;19;152442;-50
2022/02/04 01:38:28;;;;;;;;;;;;;;;20.61;41.90;100747.06;7283258;19;153499;-50
2022/02/04 01:40:55;;;;;;;;;;;;;;;20.58;42.00;100742.06;7281460;19;151790;-50
2022/02/04 01:43:22;;;;;;;;;;;;;;;20.57;41.94;100748.00;7280568;19;153395;-49
2022/02/04 01:45:52;;;;;;;;;;;;;;;20.56;42.00;100747.16;7279401;19;153786;-50
2022/02/04 01:48:19;;;;;;;;;;;;;;;20.55;42.04;100739.88;7281339;19;151676;-49
2022/02/04 01:50:46;;;;;;;;;;;;;;;20.54;42.30;100740.19;7280894;19;153368;-49
2022/02/04 01:53:14;;;;;;;;;;;;;;;20.50;42.19;100741.97;7280586;19;153935;-49
2022/02/04 01:55:41;;;;;;;;;;;;;;;20.49;42.07;100746.75;7283299;19;151986;-50
2022/02/04 01:58:08;;;;;;;;;;;;;;;20.48;42.45;100747.09;7287726;19;153662;-50
2022/02/04 02:00:36;;;;;;;;;;;;;;;20.45;42.53;100728.88;7281207;19;151880;-50
2022/02/04 02:03:03;;;;;;;;;;;;;;;20.42;42.64;100733.16;7280184;19;153655;-50
2022/02/04 02:05:30;;;;;;;;;;;;;;;20.40;42.35;100729.81;7280216;19;154222;-49
2022/02/04 02:08:07;;;;;;;;;;;;;;;20.38;42.46;100728.47;7288300;19;152111;-49
2022/02/04 02:10:36;;;;;;;;;;;;;;;20.37;42.57;100732.41;7289320;19;153294;-49
2022/02/04 02:15:39;;;;;;;;;;;;;;;20.33;42.67;100717.34;7289202;19;151828;-49
2022/02/04 02:42:09;;;;;;;;;;;;;;;20.13;42.83;100665.28;7287887;19;153276;-50
2022/02/04 02:47:07;;;;;;;;;;;;;;;20.11;42.87;100652.72;7285509;19;154145;-49
2022/02/04 02:50:03;;;;;;;;;;;;;;;20.09;43.18;100639.00;7288066;19;153014;-50
2022/02/04 03:00:26;;;;;;;;;;;;;;;20.02;43.04;100626.56;7283924;19;152905;-50
2022/02/04 03:02:59;;;;;;;;;;;;;;;19.99;43.27;100626.00;7286062;19;154331;-50
2022/02/04 03:05:26;;;;;;;;;;;;;;;19.99;43.39;100623.22;7294683;19;152047;-50
2022/02/04 03:07:52;;;;;;;;;;;;;;;19.97;43.47;100622.72;7287408;19;154235;-49
2022/02/04 03:10:19;;;;;;;;;;;;;;;19.95;43.27;100616.56;7287611;19;151850;-49
2022/02/04 03:12:46;;;;;;;;;;;;;;;19.94;43.50;100614.09;7286758;19;153885;-49
2022/02/04 03:15:13;;;;;;;;;;;;;;;19.93;43.17;100604.03;7286624;19;153389;-50
2022/02/04 03:17:41;;;;;;;;;;;;;;;19.90;43.63;100597.03;7285431;19;152554;-49
2022/02/04 03:20:11;;;;;;;;;;;;;;;19.89;43.26;100606.63;7283428;19;152798;-49
2022/02/04 03:22:39;;;;;;;;;;;;;;;19.86;43.88;100604.44;7285944;19;154170;-50
2022/02/04 03:25:10;;;;;;;;;;;;;;;19.86;43.68;100596.00;7285560;19;151810;-49
2022/02/04 03:32:51;;;;;;;;;;;;;;;19.80;43.55;100576.81;7287364;19;152823;-49
2022/02/04 03:35:21;;;;;;;;;;;;;;;19.80;43.81;100586.06;7284796;19;153817;-49
2022/02/04 03:37:50;;;;;;;;;;;;;;;19.77;43.80;100592.28;7285233;19;151694;-50
2022/02/04 03:40:17;;;;;;;;;;;;;;;19.74;43.96;100576.09;7281890;19;152722;-50
2022/02/04 03:42:45;;;;;;;;;;;;;;;19.75;43.92;100576.94;7282634;19;153993;-50
2022/02/04 03:45:13;;;;;;;;;;;;;;;19.73;44.24;100580.03;7286816;19;152263;-50
2022/02/04 03:47:39;;;;;;;;;;;;;;;19.71;44.50;100578.69;7285699;19;153465;-50
2022/02/04 03:50:07;;;;;;;;;;;;;;;19.70;44.38;100582.63;7291115;19;153419;-50
2022/02/04 03:52:33;;;;;;;;;;;;;;;19.68;44.54;100576.50;7286808;19;154024;-50
2022/02/04 03:55:01;;;;;;;;;;;;;;;19.66;44.63;100570.41;7285056;19;153808;-50
2022/02/04 03:57:27;;;;;;;;;;;;;;;19.65;44.72;100569.56;7286338;19;151547;-51
2022/02/04 03:59:54;;;;;;;;;;;;;;;19.62;44.57;100564.59;7285771;19;153607;-50
2022/02/04 04:02:21;;;;;;;;;;;;;;;19.61;44.42;100565.72;7285898;19;153497;-50
2022/02/04 04:04:48;;;;;;;;;;;;;;;19.60;44.56;100558.44;7286776;19;151744;-51
2022/02/04 04:07:15;;;;;;;;;;;;;;;19.59;44.39;100553.97;7286860;19;153742;-51
2022/02/04 04:09:49;;;;;;;;;;;;;;;19.57;44.79;100550.69;7284703;19;152804;-50
2022/02/04 04:12:17;;;;;;;;;;;;;;;19.56;44.91;100546.22;7293483;19;152536;-51
2022/02/04 04:14:46;;;;;;;;;;;;;;;19.54;44.85;100554.09;7284490;19;153982;-50
2022/02/04 04:17:16;;;;;;;;;;;;;;;19.54;44.88;100548.47;7279493;19;152415;-50
2022/02/04 04:19:43;;;;;;;;;;;;;;;19.52;44.53;100548.81;7286046;19;153738;-51
2022/02/04 04:22:10;;;;;;;;;;;;;;;19.51;44.58;100552.75;7285719;19;153622;-50
2022/02/04 04:24:36;;;;;;;;;;;;;;;19.47;44.97;100537.69;7281577;19;151864;-50
2022/02/04 04:27:03;;;;;;;;;;;;;;;19.47;44.77;100526.50;7284240;19;152436;-50
2022/02/04 04:29:32;;;;;;;;;;;;;;;19.47;44.58;100536.88;7284969;19;152010;-49
2022/02/04 04:31:59;;;;;;;;;;;;;;;19.45;44.67;100534.38;7285327;19;151994;-50
2022/02/04 04:34:26;;;;;;;;;;;;;;;19.44;44.66;100541.09;7292104;19;153568;-50
2022/02/04 04:36:53;;;;;;;;;;;;;;;19.43;45.14;100538.59;7285840;19;151922;-50
2022/02/04 04:39:26;;;;;;;;;;;;;;;19.42;44.70;100534.97;7286520;19;152427;-49
2022/02/04 04:44:55;;;;;;;;;;;;;;;19.38;44.87;100531.13;7282360;19;151875;-50
2022/02/04 05:31:20;;;;;;;;;;;;;;;19.17;45.72;100470.25;7283261;19;154218;-51
2022/02/04 05:33:46;;;;;;;;;;;;;;;19.15;45.68;100462.13;7282402;19;152992;-50
2022/02/04 05:36:13;;;;;;;;;;;;;;;19.15;45.57;100464.09;7284509;19;153215;-50
2022/02/04 05:38:41;;;;;;;;;;;;;;;19.15;45.81;100456.53;7283174;19;153269;-50
2022/02/04 05:41:10;;;;;;;;;;;;;;;19.15;45.73;100461.31;7291269;19;151935;-50
2022/02/04 05:43:39;;;;;;;;;;;;;;;19.13;45.38;100457.97;7286250;19;153830;-50
2022/02/04 05:48:36;;;;;;;;;;;;;;;19.10;45.43;100440.66;7288068;19;153535;-51
2022/02/04 05:53:51;;;;;;;;;;;;;;;19.09;45.61;100440.97;7288981;19;152004;-50
2022/02/04 05:56:30;;;;;;;;;;;;;;;19.07;45.30;100435.69;7289535;19;153320;-50
2022/02/04 05:59:09;;;;;;;;;;;;;;;19.05;45.69;100429.56;7287847;19;154286;-49
2022/02/04 06:12:21;;;;;;;;;;;;;;;19.01;45.78;100431.34;7286827;19;152256;-50
2022/02/04 06:22:30;;;;;;;;;;;;;;;18.98;45.73;100411.53;7289173;19;151863;-50
2022/02/04 06:24:57;;;;;;;;;;;;;;;18.97;45.75;100405.09;7286127;19;151752;-50
2022/02/04 06:27:25;;;;;;;;;;;;;;;18.96;45.87;100409.03;7291094;19;152742;-50
2022/02/04 06:29:54;;;;;;;;;;;;;;;18.93;46.10;100411.63;7289363;19;152791;-50
2022/02/04 06:32:21;;;;;;;;;;;;;;;18.93;45.81;100406.03;7286086;19;152910;-51
2022/02/04 06:34:49;;;;;;;;;;;;;;;18.92;45.95;100396.81;7287822;19;152348;-51
2022/02/04 06:37:16;;;;;;;;;;;;;;;18.91;45.87;100403.53;7286680;19;152641;-50
2022/02/04 06:39:43;;;;;;;;;;;;;;;18.90;45.52;100393.47;7286110;19;154603;-50
2022/02/04 06:42:10;;;;;;;;;;;;;;;18.88;45.76;100395.78;7286168;19;152093;-51
2022/02/04 06:44:37;;;;;;;;;;;;;;;18.88;45.95;100383.75;7286437;19;152693;-51
2022/02/04 06:47:04;;;;;;;;;;;;;;;18.87;45.59;100382.09;7287752;19;153406;-51
2022/02/04 06:49:31;;;;;;;;;;;;;;;18.86;45.85;100375.66;7293814;19;152001;-51
2022/02/04 06:51:58;;;;;;;;;;;;;;;18.87;45.75;100377.31;7283936;19;153271;-50
2022/02/04 06:54:25;;;;;;;;;;;;;;;18.90;45.84;100381.44;7286340;19;152706;-51
2022/02/04 06:56:54;;;;;;;;;;;;;;;18.93;46.25;100373.28;7288019;19;151591;-50
2022/02/04 06:59:22;;;;;;;;;;;;;;;18.97;45.92;100370.69;7287321;19;152384;-49
2022/02/04 07:01:48;;;;;;;;;;;;;;;19.01;46.57;100355.75;7285954;19;152030;-51
2022/02/04 07:04:15;;;;;;;;;;;;;;;19.05;46.78;100355.94;7287235;19;153432;-49
2022/02/04 07:06:51;;;;;;;;;;;;;;;19.09;46.64;100351.38;7287376;19;154353;-49
2022/02/04 07:09:26;;;;;;;;;;;;;;;19.13;46.37;100354.38;7287767;19;152938;-50
2022/02/04 07:17:25;;;;;;;;;;;;;;;19.28;46.52;100345.63;7284074;19;152802;-50
2022/02/04 07:19:53;;;;;;;;;;;;;;;19.38;46.64;100370.63;7285491;19;153401;-51
2022/02/04 07:22:22;;;;;;;;;;;;;;;19.42;45.81;100347.25;7288121;19;151501;-50
2022/02/04 07:24:53;;;;;;;;;;;;;;;19.33;42.15;100343.56;7282916;19;152991;-50
2022/02/04 07:27:20;;;;;;;;;;;;;;;19.39;43.07;100335.88;7284703;19;153970;-50
2022/02/04 07:29:51;;;;;;;;;;;;;;;19.45;43.42;100329.00;7285898;19;151641;-50
2022/02/04 07:32:29;;;;;;;;;;;;;;;19.51;43.47;100325.78;7294281;19;153125;-50
2022/02/04 07:42:47;;;;;;;;;;;;;;;19.80;43.64;100297.34;7286813;19;151693;-50
2022/02/04 07:45:15;;;;;;;;;;;;;;;19.87;43.44;100305.28;7285541;19;153035;-50
2022/02/04 07:47:43;;;;;;;;;;;;;;;19.92;43.85;100286.34;7282822;19;152517;-50
2022/02/04 07:50:10;;;;;;;;;;;;;;;19.99;43.72;100285.88;7286514;19;151826;-50
2022/02/04 07:52:38;;;;;;;;;;;;;;;20.09;43.96;100296.00;7287022;19;153222;-50
2022/02/04 07:55:10;;;;;;;;;;;;;;;20.15;43.91;100289.94;7291452;19;154174;-50
2022/02/04 07:57:40;;;;;;;;;;;;;;;20.19;43.87;100284.53;7285672;19;153785;-50
2022/02/04 08:00:09;;;;;;;;;;;;;;;20.27;43.52;100294.94;7283117;19;153712;-50
2022/02/04 08:02:36;;;;;;;;;;;;;;;20.32;44.03;100289.22;7285802;19;152486;-51
2022/02/04 08:05:05;;;;;;;;;;;;;;;20.36;43.81;100276.22;7283129;19;152177;-50
2022/02/04 08:07:42;;;;;;;;;;;;;;;20.44;44.33;100280.22;7284755;19;152209;-50
2022/02/04 08:13:19;;;;;;;;;;;;;;;20.53;43.93;100278.28;7282579;19;153834;-50
2022/02/04 08:36:27;;;;;;;;;;;;;;;20.93;43.19;100366.94;7284261;19;154633;-50
2022/02/04 08:54:41;;;;;;;;;;;;;;;21.21;43.17;100437.78;7284883;19;153397;-50
2022/02/04 09:02:37;;;;;;;;;;;;;;;21.27;43.09;100458.94;7283107;19;152018;-49
2022/02/04 09:05:13;;;;;;;;;;;;;;;21.28;42.96;100460.59;7288703;19;153187;-48
2022/02/04 09:08:30;;;;;;;;;;;;;;;21.29;43.07;100465.06;7282061;19;154504;-48
2022/02/04 09:10:36;;;;;;;;;;;;;;;21.30;42.97;100472.34;7280258;19;153958;-48
2022/02/04 09:23:26;;;;;;;;;;;;;;;21.32;43.04;100491.69;7281941;19;152242;-49
2022/02/04 09:25:53;;;;;;;;;;;;;;;21.32;43.38;100498.13;7280429;19;155313;-48
2022/02/04 09:28:22;;;;;;;;;;;;;;;21.32;43.25;100500.94;7290239;19;152073;-48
2022/02/04 09:30:50;;;;;;;;;;;;;;;21.30;42.86;100512.50;7280137;19;153326;-48
2022/02/04 09:33:16;;;;;;;;;;;;;;;21.30;43.21;100520.13;7282485;19;151803;-49
2022/02/04 09:35:43;;;;;;;;;;;;;;;21.28;42.96;100531.69;7283703;19;152029;-49
2022/02/04 09:38:10;;;;;;;;;;;;;;;21.28;43.05;100542.91;7280312;19;153905;-49
2022/02/04 09:40:37;;;;;;;;;;;;;;;21.29;42.78;100555.00;7281361;19;152946;-49
2022/02/04 09:43:08;;;;;;;;;;;;;;;21.25;42.72;100568.03;7282220;19;152698;-49
2022/02/04 09:45:43;;;;;;;;;;;;;;;21.24;42.66;100594.47;7280042;19;153167;-49
2022/02/04 09:48:11;;;;;;;;;;;;;;;21.21;43.04;100609.97;7287355;19;152024;-49
2022/02/04 09:50:44;;;;;;;;;;;;;;;21.20;42.64;100618.75;7281453;19;152825;-48
2022/02/04 10:15:16;;;;;;;;;;;;;;;20.70;39.23;100680.59;7282403;19;151809;-49
2022/02/04 10:21:02;;;;;;;;;;;;;;;20.69;40.09;100683.72;7277872;19;152380;-49
2022/02/04 10:23:48;;;;;;;;;;;;;;;20.67;40.13;100694.44;7281644;19;151740;-49
2022/02/04 10:26:15;;;;;;;;;;;;;;;20.63;40.20;100696.19;7277627;19;153653;-49
2022/02/04 10:28:45;;;;;;;;;;;;;;;20.59;40.39;100697.97;7286003;19;153253;-49
2022/02/04 10:31:22;;;;;;;;;;;;;;;20.55;39.96;100694.97;7288616;19;151618;-49
2022/02/04 10:34:11;;;;;;;;;;;;;;;20.52;40.07;100712.47;7288437;19;152172;-50
2022/02/04 10:48:17;;;;;;;;;;;;;;;20.32;40.35;100746.56;7287001;19;152007;-50
2022/02/04 11:01:59;;;;;;;;;;;;;;;20.17;40.57;100769.28;7292909;19;152101;-50
2022/02/04 11:31:54;;;;;;;;;;;;;;;20.26;40.67;100803.91;7285353;19;151923;-49
2022/02/04 11:34:37;;;;;;;;;;;;;;;20.32;40.58;100797.91;7283968;19;153333;-49
2022/02/04 11:51:30;;;;;;;;;;;;;;;20.71;40.75;100791.78;7289441;19;152228;-49
2022/02/04 11:54:30;;;;;;;;;;;;;;;20.78;41.03;100788.53;7285228;19;152828;-49
2022/02/04 11:57:03;;;;;;;;;;;;;;;20.86;41.32;100802.66;7281055;19;152839;-49
2022/02/04 11:59:44;;;;;;;;;;;;;;;20.91;41.34;100801.72;7284383;19;151951;-49
2022/02/04 12:02:26;;;;;;;;;;;;;;;20.98;40.91;100804.09;7283798;19;152058;-49
2022/02/04 12:07:52;;;;;;;;;;;;;;;21.09;41.02;100808.31;7282044;19;153012;-49
2022/02/04 12:10:20;;;;;;;;;;;;;;;21.15;40.90;100812.72;7279289;19;152906;-50
2022/02/04 12:12:57;;;;;;;;;;;;;;;21.18;40.55;100818.53;7288959;19;153379;-49
2022/02/04 12:15:46;;;;;;;;;;;;;;;21.24;40.39;100822.06;7282347;19;153701;-49
2022/02/04 12:18:13;;;;;;;;;;;;;;;21.26;40.31;100826.22;7281232;19;153942;-50
2022/02/04 12:20:53;;;;;;;;;;;;;;;21.29;40.17;100821.94;7282788;19;152425;-49
2022/02/04 12:23:35;;;;;;;;;;;;;;;21.34;40.06;100819.03;7282152;19;152350;-50
2022/02/04 12:26:08;;;;;;;;;;;;;;;21.38;39.98;100838.88;7280674;19;153320;-50
2022/02/04 12:28:38;;;;;;;;;;;;;;;21.37;39.48;100837.22;7283660;19;152035;-49
2022/02/04 12:31:14;;;;;;;;;;;;;;;21.39;39.86;100835.78;7283252;19;151890;-50
2022/02/04 12:33:45;;;;;;;;;;;;;;;21.39;39.59;100838.59;7281633;19;153550;-50
2022/02/04 12:36:16;;;;;;;;;;;;;;;21.41;39.50;100825.03;7288757;19;151885;-49
2022/02/04 12:38:46;;;;;;;;;;;;;;;21.43;39.48;100838.78;7282253;19;153943;-49
2022/02/04 12:41:18;;;;;;;;;;;;;;;21.45;39.92;100853.31;7282975;19;151846;-49
2022/02/04 12:43:47;;;;;;;;;;;;;;;21.44;39.96;100843.25;7283303;19;152690;-49
2022/02/04 12:46:13;;;;;;;;;;;;;;;21.44;39.79;100860.94;7278427;19;155423;-49
2022/02/04 12:48:40;;;;;;;;;;;;;;;21.44;39.76;100860.13;7280832;19;152152;-50
2022/02/04 12:51:31;;;;;;;;;;;;;;;21.44;39.70;100866.53;7274251;19;152141;-50
2022/02/04 12:53:58;;;;;;;;;;;;;;;21.43;39.74;100866.88;7281977;19;153490;-49
2022/02/04 12:56:39;;;;;;;;;;;;;;;21.44;39.50;100865.75;7282950;19;151567;-49
2022/02/04 12:59:41;;;;;;;;;;;;;;;21.43;39.29;100867.72;7289883;19;153449;-49
2022/02/04 13:02:32;;;;;;;;;;;;;;;21.42;39.42;100866.06;7281801;19;151927;-49
2022/02/04 13:10:19;;;;;;;;;;;;;;;21.42;39.44;100879.28;7276629;19;151822;-49
2022/02/04 13:12:50;;;;;;;;;;;;;;;21.42;39.40;100873.66;7280994;19;153677;-50
2022/02/04 13:15:17;;;;;;;;;;;;;;;21.40;39.37;100879.56;7281480;19;154336;-49
2022/02/04 13:17:44;;;;;;;;;;;;;;;21.39;39.45;100883.56;7280292;19;151807;-50
2022/02/04 13:20:11;;;;;;;;;;;;;;;21.36;39.25;100881.34;7282070;19;152033;-50
2022/02/04 13:22:38;;;;;;;;;;;;;;;21.39;39.14;100882.72;7289168;19;152483;-50
2022/02/04 13:25:16;;;;;;;;;;;;;;;21.35;39.16;100890.13;7281642;19;153282;-50
2022/02/04 13:28:11;;;;;;;;;;;;;;;21.34;39.25;100880.84;7273988;19;153947;-50
2022/02/04 13:30:41;;;;;;;;;;;;;;;21.33;39.23;100887.63;7280681;19;152001;-50
2022/02/04 13:33:15;;;;;;;;;;;;;;;21.32;39.03;100885.94;7281463;19;153616;-50
2022/02/04 13:35:43;;;;;;;;;;;;;;;21.30;39.58;100889.06;7278189;19;154958;-49
2022/02/04 13:38:46;;;;;;;;;;;;;;;21.29;39.21;100889.41;7280412;19;152168;-50
2022/02/04 13:41:34;;;;;;;;;;;;;;;21.31;39.34;100887.09;7279173;19;151875;-50
2022/02/04 13:50:04;;;;;;;;;;;;;;;21.26;39.43;100899.28;7279161;19;154566;-49
2022/02/04 13:52:51;;;;;;;;;;;;;;;21.23;39.33;100901.88;7281554;19;152143;-50
2022/02/04 14:01:02;;;;;;;;;;;;;;;21.16;39.34;100921.16;7280314;19;152114;-50
2022/02/04 14:03:38;;;;;;;;;;;;;;;21.12;39.19;100915.28;7284270;19;152097;-50
2022/02/04 14:06:20;;;;;;;;;;;;;;;21.10;39.40;100909.16;7281245;19;153405;-50
2022/02/04 14:11:35;;;;;;;;;;;;;;;21.05;39.23;100914.03;7281618;19;154593;-50
2022/02/04 14:14:12;;;;;;;;;;;;;;;21.03;39.57;100930.41;7283831;19;152483;-49
2022/02/04 14:16:53;;;;;;;;;;;;;;;21.02;39.49;100926.75;7286706;19;152727;-50
2022/02/04 14:19:20;;;;;;;;;;;;;;;21.01;39.33;100924.25;7285935;19;153239;-49
2022/02/04 14:21:48;;;;;;;;;;;;;;;21.02;39.46;100920.31;7285072;19;151973;-49
2022/02/04 14:24:15;;;;;;;;;;;;;;;20.99;39.49;100918.09;7286214;19;153461;-49
2022/02/04 14:26:46;;;;;;;;;;;;;;;20.97;39.19;100923.22;7284786;19;153857;-49
2022/02/04 14:29:25;;;;;;;;;;;;;;;20.95;39.08;100931.09;7285917;19;152681;-50
2022/02/04 15:00:51;;;;;;;;;;;;;;;20.95;38.75;100948.78;7280360;19;155006;-50
2022/02/04 15:03:25;;;;;;;;;;;;;;;20.99;39.01;100955.44;7284249;19;151989;-50
2022/02/04 15:08:50;;;;;;;;;;;;;;;20.99;38.27;100960.22;7283281;19;153944;-51
2022/02/04 15:11:19;;;;;;;;;;;;;;;20.98;37.76;100969.81;7281607;19;152469;-50
2022/02/04 15:13:48;;;;;;;;;;;;;;;20.95;37.61;100973.25;7280120;19;153287;-51
2022/02/04 15:16:15;;;;;;;;;;;;;;;20.95;37.44;100981.66;7282552;19;152999;-50
2022/02/04 15:18:43;;;;;;;;;;;;;;;20.92;37.55;100983.13;7291998;19;151877;-51
2022/02/04 15:21:14;;;;;;;;;;;;;;;20.90;37.28;100979.78;7280841;19;152593;-50
2022/02/04 15:23:42;;;;;;;;;;;;;;;20.88;36.97;100979.28;7282459;19;152065;-50
2022/02/04 15:26:11;;;;;;;;;;;;;;;20.85;37.00;100977.91;7285660;19;152590;-51
2022/02/04 15:31:11;;;;;;;;;;;;;;;20.84;36.62;100995.09;7284955;19;152270;-50
2022/02/04 15:33:38;;;;;;;;;;;;;;;20.82;36.88;100995.38;7283931;19;152814;-52
2022/02/04 15:36:05;;;;;;;;;;;;;;;20.80;36.64;100994.03;7284098;19;154075;-54
2022/02/04 15:38:32;;;;;;;;;;;;;;;20.79;37.03;100989.56;7281946;19;152411;-50
2022/02/04 15:40:59;;;;;;;;;;;;;;;20.74;36.64;101001.72;7291224;19;151953;-50
2022/02/04 15:43:27;;;;;;;;;;;;;;;20.73;36.46;101019.69;7285428;19;151495;-50
2022/02/04 15:51:21;;;;;;;;;;;;;;;20.71;36.57;101026.78;7283278;19;151978;-50
2022/02/04 15:54:01;;;;;;;;;;;;;;;20.69;36.65;101029.88;7283724;19;153203;-50
2022/02/04 15:56:46;;;;;;;;;;;;;;;20.71;36.95;101035.22;7283104;19;153441;-50
2022/02/04 16:06:47;;;;;;;;;;;;;;;20.79;36.74;101048.53;7281000;19;154260;-50
2022/02/04 16:09:15;;;;;;;;;;;;;;;20.77;36.29;101057.25;7281753;19;152620;-50
2022/02/04 16:14:18;;;;;;;;;;;;;;;20.77;36.22;101071.28;7280825;19;154240;-50
2022/02/04 16:16:52;;;;;;;;;;;;;;;20.77;36.07;101079.72;7282520;19;153891;-51
2022/02/04 16:29:15;;;;;;;;;;;;;;;20.74;36.07;101097.19;7281511;19;153388;-51
2022/02/04 16:31:43;;;;;;;;;;;;;;;20.73;36.31;101095.50;7281138;19;152416;-51
2022/02/04 16:34:10;;;;;;;;;;;;;;;20.73;35.99;101103.09;7284396;19;152910;-51
2022/02/04 16:36:56;;;;;;;;;;;;;;;20.72;36.36;101101.44;7279502;19;154396;-52
2022/02/04 16:39:23;;;;;;;;;;;;;;;20.70;36.10;101104.56;7281051;19;152131;-51
2022/02/04 16:41:54;;;;;;;;;;;;;;;20.69;36.13;101111.31;7282754;19;154095;-51
2022/02/04 16:44:21;;;;;;;;;;;;;;;20.67;35.98;101110.75;7280699;19;154408;-51
2022/02/04 16:46:48;;;;;;;;;;;;;;;20.68;36.07;101126.47;7289823;19;151703;-51
2022/02/04 16:49:15;;;;;;;;;;;;;;;20.66;36.13;101120.34;7282607;19;154538;-51
2022/02/04 16:51:42;;;;;;;;;;;;;;;20.66;35.65;101131.59;7281961;19;151547;-51
2022/02/04 16:54:08;;;;;;;;;;;;;;;20.66;35.77;101139.16;7282431;19;152318;-53
2022/02/04 16:56:36;;;;;;;;;;;;;;;20.69;38.13;101144.16;7278381;19;152412;-51
2022/02/04 16:59:04;;;;;;;;;;;;;;;20.68;39.30;101142.50;7280212;19;151825;-52
2022/02/04 17:01:31;;;;;;;;;;;;;;;20.70;39.18;101162.69;7280497;19;154420;-49
2022/02/04 17:03:58;;;;;;;;;;;;;;;20.68;38.88;101165.78;7277586;19;152479;-50
2022/02/04 17:06:27;;;;;;;;;;;;;;;20.68;38.52;101174.22;7282484;19;152288;-51
2022/02/04 17:09:05;;;;;;;;;;;;;;;20.68;37.76;101173.38;7287035;19;153040;-50
2022/02/04 17:11:34;;;;;;;;;;;;;;;20.65;37.68;101188.03;7282213;19;152165;-50
2022/02/04 17:14:01;;;;;;;;;;;;;;;20.62;37.63;101189.47;7272444;19;153574;-50
2022/02/04 17:16:28;;;;;;;;;;;;;;;20.59;37.56;101192.03;7278354;19;156179;-50
2022/02/04 17:18:55;;;;;;;;;;;;;;;20.56;37.33;101189.84;7281297;19;152266;-50
2022/02/04 17:21:24;;;;;;;;;;;;;;;20.54;37.48;101197.72;7278532;19;153500;-50
2022/02/04 17:23:53;;;;;;;;;;;;;;;20.52;37.39;101194.41;7278848;19;152302;-50
2022/02/04 17:26:22;;;;;;;;;;;;;;;20.47;37.22;101200.91;7280184;19;151929;-50
2022/02/04 17:28:50;;;;;;;;;;;;;;;20.46;37.34;101210.47;7277180;19;152833;-50
2022/02/04 17:31:17;;;;;;;;;;;;;;;20.44;37.66;101214.72;7288299;19;154319;-50
2022/02/04 17:33:43;;;;;;;;;;;;;;;20.41;37.51;101217.00;7278631;19;153320;-50
2022/02/04 17:36:10;;;;;;;;;;;;;;;20.39;37.38;101226.84;7279945;19;153380;-49
2022/02/04 17:38:37;;;;;;;;;;;;;;;20.37;37.29;101229.13;7295316;19;152326;-50
2022/02/04 17:41:04;;;;;;;;;;;;;;;20.33;37.37;101228.88;7295356;19;152150;-50
2022/02/04 17:43:30;;;;;;;;;;;;;;;20.31;37.19;101219.09;7294589;19;153377;-51
2022/02/04 17:45:57;;;;;;;;;;;;;;;20.29;37.33;101229.75;7295762;19;151795;-51
2022/02/04 17:48:29;;;;;;;;;;;;;;;20.25;37.45;101237.09;7295097;19;151698;-50
2022/02/04 17:51:06;;;;;;;;;;;;;;;20.22;37.02;101240.50;7293665;19;154268;-51
2022/02/04 17:53:48;;;;;;;;;;;;;;;20.20;37.26;101246.41;7301312;19;152303;-51
2022/02/04 18:01:49;;;;;;;;;;;;;;;20.11;37.04;101245.41;7294591;19;153317;-51
2022/02/04 18:09:26;;;;;;;;;;;;;;;20.01;36.85;101253.09;7291611;19;152346;-50
2022/02/04 18:11:53;;;;;;;;;;;;;;;19.97;36.75;101253.69;7292275;19;153931;-51
2022/02/04 18:14:20;;;;;;;;;;;;;;;19.93;36.51;101258.22;7291013;19;152522;-51
2022/02/04 18:16:47;;;;;;;;;;;;;;;19.92;36.33;101261.31;7301800;19;152907;-51
2022/02/04 18:19:13;;;;;;;;;;;;;;;19.86;36.71;101263.34;7293412;19;153195;-51
2022/02/04 18:21:40;;;;;;;;;;;;;;;19.84;36.60;101262.81;7293480;19;153170;-50
2022/02/04 18:24:07;;;;;;;;;;;;;;;19.81;37.03;101280.22;7294058;19;153341;-50
2022/02/04 18:26:34;;;;;;;;;;;;;;;19.79;36.32;101278.84;7294471;19;151724;-50
2022/02/04 18:29:00;;;;;;;;;;;;;;;19.77;36.34;101286.69;7289959;19;152856;-50
2022/02/04 18:31:29;;;;;;;;;;;;;;;19.73;36.91;101288.44;7291812;19;154313;-50
2022/02/04 18:33:56;;;;;;;;;;;;;;;19.71;36.58;101299.97;7295156;19;151776;-50
2022/02/04 18:36:23;;;;;;;;;;;;;;;19.66;36.42;101302.81;7301458;19;153227;-50
2022/02/04 18:38:54;;;;;;;;;;;;;;;19.64;36.47;101299.44;7294093;19;151881;-51
2022/02/04 18:46:48;;;;;;;;;;;;;;;19.57;36.55;101306.53;7291318;19;151901;-50
2022/02/04 18:49:24;;;;;;;;;;;;;;;19.54;36.88;101316.34;7284266;19;153430;-50
2022/02/04 18:59:21;;;;;;;;;;;;;;;19.44;36.58;101325.66;7293638;19;154317;-50
2022/02/04 19:01:48;;;;;;;;;;;;;;;19.42;36.50;101330.72;7286478;19;152833;-50
2022/02/04 19:04:23;;;;;;;;;;;;;;;19.40;36.94;101332.94;7282400;19;152676;-50
2022/02/04 19:06:59;;;;;;;;;;;;;;;19.37;36.43;101336.34;7283680;19;151927;-50
2022/02/04 19:09:26;;;;;;;;;;;;;;;19.36;36.52;101345.88;7281649;19;152272;-51
2022/02/04 19:12:01;;;;;;;;;;;;;;;19.33;36.39;101351.22;7284063;19;153364;-50
2022/02/04 19:17:07;;;;;;;;;;;;;;;19.27;36.63;101361.63;7282284;19;151728;-51
2022/02/04 19:19:48;;;;;;;;;;;;;;;19.25;36.77;101375.09;7281936;19;153985;-50
2022/02/04 19:22:27;;;;;;;;;;;;;;;19.24;36.51;101389.38;7293132;19;152282;-51
2022/02/04 19:24:57;;;;;;;;;;;;;;;19.21;36.61;101389.97;7284405;19;154139;-50
2022/02/04 19:27:24;;;;;;;;;;;;;;;19.18;36.49;101382.97;7281623;19;151499;-50
2022/02/04 19:29:50;;;;;;;;;;;;;;;19.15;36.45;101391.13;7283177;19;153481;-50
2022/02/04 19:32:17;;;;;;;;;;;;;;;19.13;36.88;101382.16;7281489;19;153331;-50
2022/02/04 19:34:44;;;;;;;;;;;;;;;19.12;36.81;101389.75;7285713;19;151796;-50
2022/02/04 19:37:11;;;;;;;;;;;;;;;19.08;36.70;101388.63;7282394;19;153299;-50
2022/02/04 19:39:40;;;;;;;;;;;;;;;19.05;36.65;101384.44;7281960;19;153976;-50
2022/02/04 19:42:20;;;;;;;;;;;;;;;19.04;36.91;101393.13;7284926;19;153372;-50
2022/02/04 19:44:52;;;;;;;;;;;;;;;19.01;36.89;101397.34;7291192;19;153465;-50
2022/02/04 19:47:27;;;;;;;;;;;;;;;18.99;36.63;101405.19;7283245;19;151897;-49
2022/02/04 19:52:32;;;;;;;;;;;;;;;18.95;36.82;101411.66;7284311;19;154388;-50
2022/02/04 20:25:58;;;;;;;;;;;;;;;18.69;37.11;101447.28;7279962;19;153339;-50
2022/02/04 20:28:25;;;;;;;;;;;;;;;18.69;36.88;101452.91;7282151;19;152368;-50
2022/02/04 20:30:52;;;;;;;;;;;;;;;18.67;36.84;101453.16;7289716;19;152092;-50
2022/02/04 20:33:19;;;;;;;;;;;;;;;18.63;36.80;101454.84;7281315;19;153806;-50
2022/02/04 20:35:46;;;;;;;;;;;;;;;18.62;37.09;101443.97;7283522;19;152489;-50
2022/02/04 20:38:15;;;;;;;;;;;;;;;18.58;37.18;101452.06;7282429;19;153589;-50